Time;durP1;ratioP1;P1;durP2;ratioP2;P2;SDS_P1;SDS_P2;PMS_P1;PMS_P2;Temp;Humidity;BMP_temperature;BMP_pressure;BME280_temperature;BME280_humidity;BME280_pressure;Samples;Min_cycle;Max_cycle;Signal;HPM_P1;HPM_P2
2022/12/10 02:54:58;;;;;;;29.13;9.27;;;;;;;7.98;83.02;94427.25;5055414;28;20073;-81
2022/12/10 02:57:36;;;;;;;32.53;10.82;;;;;;;8.54;83.41;94534.38;5024884;28;20049;-81
2022/12/10 03:00:05;;;;;;;29.88;10.60;;;;;;;8.56;82.48;94519.81;5008722;28;20046;-81
2022/12/10 03:02:49;;;;;;;25.20;10.85;;;;;;;8.66;83.12;94524.25;5005968;28;20746;-81
2022/12/10 03:05:46;;;;;;;28.75;10.73;;;;;;;8.65;82.85;94527.94;5004080;28;20164;-81
2022/12/10 03:08:21;;;;;;;27.98;10.30;;;;;;;8.33;82.47;94454.47;5021776;28;20069;-81
2022/12/10 03:11:08;;;;;;;33.70;11.13;;;;;;;8.84;82.85;94523.56;5025974;28;20192;-81
2022/12/10 03:13:38;;;;;;;32.40;11.85;;;;;;;8.49;82.88;94487.63;5032414;28;20056;-81
2022/12/10 03:16:04;;;;;;;32.60;10.57;;;;;;;8.46;83.25;94509.34;5037076;28;20044;-81
2022/12/10 03:18:33;;;;;;;27.95;10.30;;;;;;;7.57;83.07;94354.66;5042700;28;20049;-81
2022/12/10 03:21:03;;;;;;;25.40;10.00;;;;;;;8.73;82.92;94512.28;5043039;28;20045;-81
2022/12/10 03:23:34;;;;;;;34.88;11.75;;;;;;;8.22;83.56;94448.47;5042913;28;20100;-81
2022/12/10 03:26:04;;;;;;;25.90;10.27;;;;;;;8.47;83.85;94481.81;5004755;28;20061;-81
2022/12/10 03:28:37;;;;;;;23.88;10.07;;;;;;;8.19;83.64;94429.72;5021034;28;20164;-81
2022/12/10 03:31:04;;;;;;;19.83;9.73;;;;;;;8.86;83.25;94521.41;5021620;28;20507;-81
2022/12/10 03:33:30;;;;;;;35.58;11.02;;;;;;;7.62;83.64;94358.06;4998164;28;20045;-80
2022/12/10 03:35:56;;;;;;;20.52;9.60;;;;;;;8.65;83.83;94533.22;5001993;28;20072;-80
2022/12/10 03:38:22;;;;;;;24.95;10.60;;;;;;;8.75;83.85;94519.94;5024454;28;20412;-80
2022/12/10 03:40:48;;;;;;;26.25;9.65;;;;;;;8.13;83.36;94421.06;5013955;28;20061;-81
2022/12/10 03:43:13;;;;;;;31.25;9.77;;;;;;;8.30;83.96;94433.88;5020885;28;20136;-80
2022/12/10 03:45:40;;;;;;;32.70;10.07;;;;;;;8.76;83.98;94503.81;5022256;28;20103;-80
2022/12/10 03:48:05;;;;;;;24.15;9.65;;;;;;;7.93;83.95;94377.13;5035561;28;20103;-80
2022/12/10 03:50:31;;;;;;;24.20;10.35;;;;;;;8.38;83.88;94452.59;5024421;28;20473;-80
2022/12/10 03:52:56;;;;;;;21.05;9.52;;;;;;;8.09;84.08;94398.88;5023780;28;20049;-81
2022/12/10 03:55:21;;;;;;;29.08;9.05;;;;;;;8.37;84.13;94426.44;5041866;28;20920;-81
2022/12/10 03:57:48;;;;;;;20.40;9.75;;;;;;;8.95;83.91;94497.81;5024403;28;20076;-81
2022/12/10 04:00:13;;;;;;;22.10;9.23;;;;;;;8.85;83.87;94496.81;5041202;28;20040;-81
2022/12/10 04:02:39;;;;;;;21.17;9.90;;;;;;;8.34;85.12;94403.22;5020541;28;20040;-81
2022/12/10 04:05:06;;;;;;;29.02;9.98;;;;;;;8.76;84.79;94468.66;5002235;28;20135;-80
2022/12/10 04:07:31;;;;;;;28.83;10.55;;;;;;;8.50;86.21;94434.50;5009448;28;20047;-80
2022/12/10 04:09:57;;;;;;;28.15;11.23;;;;;;;8.68;85.50;94454.19;5024011;28;20045;-81
2022/12/10 04:12:22;;;;;;;33.20;11.40;;;;;;;8.36;85.91;94417.72;5023938;28;20029;-81
2022/12/10 04:17:33;;;;;;;23.98;10.40;;;;;;;8.92;85.51;94479.88;5030974;28;20172;-80
2022/12/10 04:19:59;;;;;;;32.20;10.50;;;;;;;8.55;85.67;94428.38;5032847;28;20053;-79
2022/12/10 04:27:56;;;;;;;28.85;12.40;;;;;;;8.42;86.35;94421.09;5033194;28;20110;-79
2022/12/10 04:30:21;;;;;;;31.63;13.70;;;;;;;8.46;86.11;94435.34;5021875;28;20053;-79
2022/12/10 04:32:46;;;;;;;32.55;12.32;;;;;;;8.77;86.91;94486.09;5020706;28;20094;-78
2022/12/10 04:35:12;;;;;;;28.33;9.98;;;;;;;8.40;87.00;94449.66;5004290;28;20044;-80
2022/12/10 04:37:38;;;;;;;27.08;11.57;;;;;;;8.25;87.06;94420.69;5024417;28;20040;-80
2022/12/10 04:40:04;;;;;;;29.02;12.75;;;;;;;8.79;86.86;94500.59;5002623;28;20049;-81
2022/12/10 04:42:30;;;;;;;36.90;14.13;;;;;;;8.68;87.25;94479.81;5020953;28;20049;-80
2022/12/10 04:44:55;;;;;;;29.92;13.77;;;;;;;8.42;87.23;94426.38;5020240;28;20045;-80
2022/12/10 04:47:21;;;;;;;26.83;12.23;;;;;;;8.88;87.66;94500.78;5008560;28;20049;-79
2022/12/10 04:49:46;;;;;;;26.85;13.18;;;;;;;8.78;89.01;94498.22;5014776;28;20075;-79
2022/12/10 04:52:14;;;;;;;22.85;12.50;;;;;;;8.39;88.26;94430.38;4989230;28;20052;-79
2022/12/10 04:54:40;;;;;;;28.23;12.68;;;;;;;8.57;89.54;94478.31;4999995;28;20041;-80
2022/12/10 04:57:06;;;;;;;22.85;12.38;;;;;;;8.50;89.86;94479.44;5001287;28;20064;-80
2022/12/10 04:59:32;;;;;;;31.77;12.55;;;;;;;8.14;89.43;94398.88;5020903;28;20056;-80
2022/12/10 05:01:57;;;;;;;30.23;10.90;;;;;;;8.88;88.89;94504.22;5003096;28;20045;-80
2022/12/10 05:04:22;;;;;;;26.88;11.68;;;;;;;8.11;88.52;94378.28;5021278;28;20049;-81
2022/12/10 05:06:49;;;;;;;26.98;11.63;;;;;;;8.29;88.86;94413.81;5019355;28;20049;-81
2022/12/10 05:09:15;;;;;;;27.98;12.25;;;;;;;8.74;90.12;94505.16;5004770;28;20085;-81
2022/12/10 05:11:41;;;;;;;30.17;12.05;;;;;;;8.98;89.80;94535.06;5005068;28;20393;-81
2022/12/10 05:14:09;;;;;;;31.02;12.65;;;;;;;8.83;89.01;94498.19;5019399;28;20087;-81
2022/12/10 05:16:35;;;;;;;32.20;11.88;;;;;;;8.61;90.01;94466.94;5000918;28;20053;-81
2022/12/10 05:19:00;;;;;;;36.88;11.95;;;;;;;7.79;90.01;94341.81;5019753;28;20060;-81
2022/12/10 05:24:13;;;;;;;28.40;12.57;;;;;;;8.67;89.99;94465.03;5000653;28;20119;-80
2022/12/10 05:26:39;;;;;;;29.38;12.05;;;;;;;8.11;90.28;94383.56;5001600;28;20750;-80
2022/12/10 05:29:05;;;;;;;30.65;11.90;;;;;;;9.02;89.66;94496.41;4971447;28;20093;-81
2022/12/10 05:31:31;;;;;;;29.85;12.85;;;;;;;8.61;89.58;94424.66;5017365;28;20045;-80
2022/12/10 05:33:58;;;;;;;30.33;12.70;;;;;;;8.47;89.29;94387.50;5037478;28;20049;-80
2022/12/10 05:36:26;;;;;;;27.15;12.15;;;;;;;8.35;89.01;94368.59;5019985;28;20371;-80
2022/12/10 05:38:52;;;;;;;42.92;13.80;;;;;;;8.72;89.71;94455.19;5019341;28;20049;-80
2022/12/10 05:41:20;;;;;;;28.75;12.43;;;;;;;8.96;90.08;94496.75;5021383;28;20446;-80
2022/12/10 05:43:46;;;;;;;26.60;12.65;;;;;;;8.89;91.00;94513.72;5010443;28;20056;-81
2022/12/10 05:46:17;;;;;;;28.90;12.18;;;;;;;9.01;90.23;94513.34;5029496;28;20118;-80
2022/12/10 05:48:43;;;;;;;48.25;16.10;;;;;;;8.77;90.49;94478.16;5006681;28;20045;-81
2022/12/10 05:51:11;;;;;;;29.98;11.95;;;;;;;8.30;90.11;94410.09;4996086;28;20088;-81
2022/12/10 05:53:37;;;;;;;35.78;13.35;;;;;;;8.37;90.39;94429.88;5000869;28;20494;-80
2022/12/10 05:56:08;;;;;;;39.22;13.70;;;;;;;8.45;90.42;94413.44;5000897;28;20042;-80
2022/12/10 05:58:34;;;;;;;34.30;13.77;;;;;;;9.16;89.75;94531.72;5008596;28;20045;-80
2022/12/10 06:00:59;;;;;;;26.10;12.35;;;;;;;8.84;90.05;94466.19;5004901;28;20697;-80
2022/12/10 06:03:27;;;;;;;42.58;13.80;;;;;;;8.92;89.77;94480.66;5016296;28;20057;-80
2022/12/10 06:05:52;;;;;;;31.15;14.00;;;;;;;8.52;90.05;94421.81;5003273;28;20054;-81
2022/12/10 06:08:17;;;;;;;30.35;14.07;;;;;;;8.31;89.65;94380.78;5019997;28;20834;-80
2022/12/10 06:10:43;;;;;;;35.35;14.85;;;;;;;8.21;89.48;94367.63;4999380;28;20738;-80
2022/12/10 06:13:08;;;;;;;29.63;12.90;;;;;;;8.59;89.48;94423.34;5001733;28;20053;-80
2022/12/10 06:15:34;;;;;;;33.28;15.25;;;;;;;9.17;90.48;94537.78;5019908;28;20071;-80
2022/12/10 06:17:59;;;;;;;46.10;15.63;;;;;;;8.83;91.82;94512.19;5024488;28;20136;-80
2022/12/10 06:20:26;;;;;;;37.13;14.48;;;;;;;8.89;91.81;94511.09;5024980;28;20040;-80
2022/12/10 06:22:51;;;;;;;33.33;15.07;;;;;;;8.13;91.43;94370.88;5007141;28;20045;-81
2022/12/10 06:25:18;;;;;;;45.95;17.05;;;;;;;9.05;92.18;94527.59;5002390;28;20057;-80
2022/12/10 06:27:46;;;;;;;31.95;15.02;;;;;;;8.67;93.18;94515.25;5016380;28;20084;-81
2022/12/10 06:30:11;;;;;;;40.63;16.08;;;;;;;8.74;93.47;94486.63;5016387;28;20826;-80
2022/12/10 06:32:37;;;;;;;33.20;13.98;;;;;;;8.80;94.42;94512.75;5005739;28;20049;-80
2022/12/10 06:35:03;;;;;;;40.83;14.27;;;;;;;8.31;93.87;94420.44;5005716;28;20080;-80
2022/12/10 06:37:29;;;;;;;41.55;14.23;;;;;;;8.26;93.84;94380.78;5020563;28;20045;-80
2022/12/10 06:39:54;;;;;;;35.58;13.60;;;;;;;8.56;93.17;94411.47;5017956;28;20059;-80
2022/12/10 06:42:20;;;;;;;44.20;15.38;;;;;;;8.59;93.01;94402.97;5040916;28;20045;-80
2022/12/10 06:44:46;;;;;;;42.28;15.60;;;;;;;8.68;92.58;94421.66;5010007;28;20060;-80
2022/12/10 06:47:12;;;;;;;34.13;14.73;;;;;;;8.36;92.28;94388.66;5018342;28;20053;-80
2022/12/10 06:49:38;;;;;;;29.50;13.82;;;;;;;9.20;92.10;94519.50;5025551;28;20372;-80
2022/12/10 06:52:04;;;;;;;30.33;14.15;;;;;;;9.15;91.99;94489.69;5004808;28;20041;-80
2022/12/10 06:54:30;;;;;;;35.90;13.80;;;;;;;8.89;92.06;94449.47;5000860;28;20056;-80
2022/12/10 06:56:56;;;;;;;27.90;13.32;;;;;;;9.26;92.51;94521.03;5000724;28;20144;-81
2022/12/10 06:59:21;;;;;;;28.52;12.55;;;;;;;8.74;92.76;94455.69;5024414;28;20121;-81
2022/12/10 07:01:47;;;;;;;38.28;14.98;;;;;;;8.64;92.46;94447.06;5022112;28;20045;-81
2022/12/10 07:04:13;;;;;;;42.53;16.23;;;;;;;8.22;92.10;94393.00;5021602;28;20515;-80
2022/12/10 07:06:38;;;;;;;34.42;15.70;;;;;;;9.03;92.33;94503.28;5003709;28;20509;-80
2022/12/10 07:09:04;;;;;;;35.72;15.57;;;;;;;9.26;92.24;94522.88;5021479;28;20041;-80
2022/12/10 07:11:30;;;;;;;39.08;15.80;;;;;;;9.18;92.29;94504.97;5023382;28;20060;-80
2022/12/10 07:13:57;;;;;;;31.35;13.85;;;;;;;9.17;92.10;94479.59;5022376;28;20072;-80
2022/12/10 07:16:30;;;;;;;34.10;13.57;;;;;;;9.60;91.26;94523.59;5021650;28;20049;-80
2022/12/10 07:18:57;;;;;;;37.33;14.90;;;;;;;9.15;91.21;94465.88;4973689;28;20046;-80
2022/12/10 07:21:25;;;;;;;33.53;14.48;;;;;;;9.02;90.98;94432.94;5019779;28;20571;-80
2022/12/10 07:23:57;;;;;;;29.00;13.55;;;;;;;9.09;91.13;94469.63;4997154;28;20111;-80
2022/12/10 07:26:34;;;;;;;38.88;15.70;;;;;;;9.62;90.84;94521.41;5010150;28;20048;-80
2022/12/10 07:29:01;;;;;;;34.65;15.00;;;;;;;9.37;90.93;94450.28;5016350;28;20045;-80
2022/12/10 07:31:27;;;;;;;35.58;13.93;;;;;;;9.71;90.72;94492.47;5010701;28;20086;-80
2022/12/10 07:33:54;;;;;;;28.48;15.73;;;;;;;9.68;90.85;94487.75;5008624;28;20085;-80
2022/12/10 07:36:22;;;;;;;32.00;15.50;;;;;;;9.16;90.28;94419.81;5014764;28;20052;-80
2022/12/10 07:38:48;;;;;;;35.78;17.85;;;;;;;8.95;90.63;94397.31;5015748;28;20801;-80
2022/12/10 07:41:14;;;;;;;32.33;18.38;;;;;;;9.09;91.73;94435.25;5003214;28;20045;-80
2022/12/10 07:43:41;;;;;;;31.75;16.52;;;;;;;9.11;91.42;94419.88;4998637;28;20143;-81
2022/12/10 07:46:22;;;;;;;28.70;15.07;;;;;;;9.26;91.97;94452.25;5019402;28;20093;-80
2022/12/10 07:48:49;;;;;;;36.00;17.98;;;;;;;9.37;92.00;94473.31;5009280;28;20542;-80
2022/12/10 07:51:16;;;;;;;29.88;16.10;;;;;;;9.22;92.48;94463.69;5018840;28;20049;-80
2022/12/10 07:53:43;;;;;;;31.90;15.77;;;;;;;9.30;92.16;94476.28;5008224;28;20064;-79
2022/12/10 07:56:09;;;;;;;31.15;15.70;;;;;;;9.20;92.22;94460.53;5017573;28;20046;-80
2022/12/10 07:58:35;;;;;;;35.65;16.45;;;;;;;9.10;91.46;94419.09;5016032;28;20049;-80
2022/12/10 08:01:08;;;;;;;34.17;15.75;;;;;;;9.54;91.37;94479.69;5025286;28;20108;-80
2022/12/10 08:03:34;;;;;;;30.63;16.17;;;;;;;9.30;91.65;94431.31;5020576;28;20045;-80
2022/12/10 08:06:04;;;;;;;32.05;14.18;;;;;;;9.23;91.51;94393.84;5003400;28;20045;-80
2022/12/10 08:08:30;;;;;;;29.33;15.05;;;;;;;9.29;90.99;94382.91;5017419;28;20047;-80
2022/12/10 08:10:59;;;;;;;30.38;16.05;;;;;;;8.74;91.04;94268.00;5027822;28;20510;-80
2022/12/10 08:13:24;;;;;;;30.70;15.45;;;;;;;10.01;90.99;94462.91;5020244;28;20045;-80
2022/12/10 08:15:49;;;;;;;35.63;15.95;;;;;;;10.14;90.20;94479.97;5008015;28;20048;-82
2022/12/10 08:18:15;;;;;;;33.63;14.98;;;;;;;9.77;90.12;94430.41;5007176;28;20037;-80
2022/12/10 08:20:40;;;;;;;33.35;15.52;;;;;;;9.92;90.15;94458.53;5008089;28;20046;-81
2022/12/10 08:23:05;;;;;;;30.33;15.30;;;;;;;10.21;89.87;94491.03;5015877;28;20838;-80
2022/12/10 08:25:31;;;;;;;32.88;14.75;;;;;;;10.33;89.77;94479.97;5002569;28;20053;-81
2022/12/10 08:27:57;;;;;;;33.50;15.27;;;;;;;9.74;89.12;94404.53;5006968;28;20056;-81
2022/12/10 08:30:23;;;;;;;38.47;14.68;;;;;;;9.81;88.92;94398.88;5030290;28;20043;-80
2022/12/10 08:32:48;;;;;;;34.92;14.55;;;;;;;9.98;89.12;94418.47;5023349;28;20571;-82
2022/12/10 08:35:13;;;;;;;34.35;16.70;;;;;;;10.41;88.91;94476.69;5006288;28;20053;-83
2022/12/10 08:37:42;;;;;;;27.70;14.82;;;;;;;10.22;89.42;94434.28;5029823;28;20058;-82
2022/12/10 08:40:08;;;;;;;31.33;16.13;;;;;;;9.67;89.33;94353.78;5021327;28;20152;-82
2022/12/10 08:42:33;;;;;;;39.08;18.58;;;;;;;9.60;89.48;94367.41;5039520;28;20430;-82
2022/12/10 08:44:59;;;;;;;33.15;18.42;;;;;;;9.77;89.26;94356.28;5031395;28;20048;-81
2022/12/10 08:47:24;;;;;;;35.70;18.77;;;;;;;9.82;90.55;94397.78;5027040;28;20064;-81
2022/12/10 08:49:50;;;;;;;41.90;19.70;;;;;;;9.21;90.16;94316.59;5012810;28;20507;-81
2022/12/10 08:52:15;;;;;;;40.45;19.25;;;;;;;10.42;90.53;94449.09;5007784;28;20487;-81
2022/12/10 08:54:41;;;;;;;45.95;23.35;;;;;;;10.12;90.16;94383.31;5013365;28;20510;-80
2022/12/10 08:57:06;;;;;;;46.70;24.13;;;;;;;9.94;89.60;94340.66;4993666;28;20045;-81
2022/12/10 08:59:31;;;;;;;48.15;22.80;;;;;;;10.70;89.47;94440.13;5012554;28;20033;-82
2022/12/10 09:01:57;;;;;;;47.60;21.42;;;;;;;10.14;88.92;94349.38;5022459;28;20058;-83
2022/12/10 09:04:22;;;;;;;44.75;22.08;;;;;;;8.90;89.39;94162.84;5014660;28;20057;-84
2022/12/10 09:06:48;;;;;;;40.72;20.23;;;;;;;9.85;89.82;94318.53;5003167;28;20065;-81
2022/12/10 09:09:13;;;;;;;31.42;18.90;;;;;;;9.35;89.05;94203.69;5000430;28;20053;-81
2022/12/10 09:11:39;;;;;;;35.90;19.88;;;;;;;10.38;88.97;94329.59;5003429;28;20139;-80
2022/12/10 09:14:05;;;;;;;36.92;19.05;;;;;;;11.10;88.53;94438.63;5005109;28;20123;-80
2022/12/10 09:16:35;;;;;;;32.63;17.98;;;;;;;11.12;87.73;94417.91;5021028;28;20158;-81
2022/12/10 09:19:03;;;;;;;33.63;16.88;;;;;;;10.74;87.38;94406.66;5020396;28;20144;-82
2022/12/10 09:21:30;;;;;;;34.22;18.88;;;;;;;10.69;87.84;94392.69;5019972;28;20189;-80
2022/12/10 09:23:56;;;;;;;35.88;17.15;;;;;;;10.23;87.19;94310.53;5014938;28;20698;-80
2022/12/10 09:26:21;;;;;;;33.70;17.83;;;;;;;10.52;86.72;94342.13;5011455;28;20132;-80
2022/12/10 09:28:47;;;;;;;30.70;15.70;;;;;;;10.49;87.08;94334.72;5001393;28;20080;-81
2022/12/10 09:31:15;;;;;;;33.63;16.65;;;;;;;10.92;86.63;94381.13;4991449;28;20567;-81
2022/12/10 09:33:42;;;;;;;36.80;15.73;;;;;;;11.22;86.10;94408.94;5008528;28;20049;-80
2022/12/10 09:36:09;;;;;;;30.27;15.02;;;;;;;11.24;85.92;94404.13;5011702;28;20891;-80
2022/12/10 09:38:36;;;;;;;25.98;16.13;;;;;;;11.13;86.70;94376.22;5007959;28;20049;-81
2022/12/10 09:41:33;;;;;;;31.55;16.90;;;;;;;11.49;86.61;94390.34;5014751;28;20426;-80
2022/12/10 09:44:08;;;;;;;33.10;17.40;;;;;;;10.58;86.66;94240.97;5003979;28;20146;-81
2022/12/10 09:47:03;;;;;;;42.58;18.75;;;;;;;11.42;86.75;94362.63;5020113;28;20719;-82
2022/12/10 09:49:34;;;;;;;28.45;15.45;;;;;;;10.94;87.30;94282.69;5014756;28;20077;-82
2022/12/10 09:52:03;;;;;;;32.03;15.77;;;;;;;10.89;86.49;94256.28;5006128;28;20048;-82
2022/12/10 09:54:37;;;;;;;30.60;15.70;;;;;;;11.05;86.31;94260.19;5005107;28;20052;-82
2022/12/10 09:57:06;;;;;;;24.73;13.77;;;;;;;11.87;86.42;94374.16;5014841;28;20087;-82
2022/12/10 09:59:40;;;;;;;35.33;14.90;;;;;;;11.91;86.71;94367.13;5011197;28;20052;-81
2022/12/10 10:02:23;;;;;;;27.83;13.93;;;;;;;11.86;86.00;94364.59;5009963;28;20100;-81
2022/12/10 10:04:51;;;;;;;27.67;14.73;;;;;;;11.77;85.38;94331.88;5005885;28;20060;-81
2022/12/10 10:07:26;;;;;;;27.63;13.93;;;;;;;11.81;85.55;94324.88;5008542;28;20512;-81
2022/12/10 10:10:18;;;;;;;26.10;11.75;;;;;;;12.08;84.95;94311.47;5003803;28;20848;-81
2022/12/10 10:12:44;;;;;;;24.92;12.43;;;;;;;12.48;82.74;94268.97;5011209;28;20132;-81
2022/12/10 10:15:14;;;;;;;17.80;11.23;;;;;;;12.78;81.50;94300.06;5018343;28;20041;-81
2022/12/10 10:17:45;;;;;;;21.80;12.30;;;;;;;13.09;80.37;94273.38;5006474;28;20871;-81
2022/12/10 10:20:12;;;;;;;26.15;12.13;;;;;;;13.77;77.88;94359.81;5006594;28;20507;-80
2022/12/10 10:22:38;;;;;;;19.85;10.63;;;;;;;13.65;77.36;94285.84;5014617;28;20030;-80
2022/12/10 10:25:05;;;;;;;17.40;10.18;;;;;;;13.69;75.60;94248.69;5024531;28;20076;-81
2022/12/10 10:27:33;;;;;;;20.63;10.45;;;;;;;13.63;74.31;94221.44;4993955;28;20048;-81
2022/12/10 10:30:02;;;;;;;21.83;10.15;;;;;;;14.30;73.79;94325.59;5006539;28;20088;-82
2022/12/10 10:32:37;;;;;;;24.20;12.60;;;;;;;14.49;73.67;94333.28;5020038;28;20069;-81
2022/12/10 10:35:04;;;;;;;20.13;10.68;;;;;;;14.20;74.17;94282.47;5009611;28;20084;-81
2022/12/10 10:37:35;;;;;;;18.05;9.90;;;;;;;14.44;73.58;94309.44;5008938;28;20135;-81
2022/12/10 10:40:02;;;;;;;19.85;11.32;;;;;;;13.90;74.71;94238.94;5019807;28;20088;-80
2022/12/10 10:42:43;;;;;;;29.10;11.75;;;;;;;14.01;74.48;94264.19;4999915;28;20582;-80
2022/12/10 10:45:32;;;;;;;28.33;11.80;;;;;;;14.17;75.26;94301.78;4995677;28;20511;-81
2022/12/10 10:48:28;;;;;;;28.83;13.32;;;;;;;14.10;74.80;94302.28;5023475;28;20133;-80
2022/12/10 10:50:53;;;;;;;19.85;11.55;;;;;;;13.96;75.37;94319.56;5007968;28;20834;-81
2022/12/10 10:53:43;;;;;;;33.67;14.00;;;;;;;13.73;75.62;94314.34;5006175;28;20053;-81
2022/12/10 10:56:18;;;;;;;26.80;13.13;;;;;;;13.33;76.74;94239.16;4991848;28;20059;-82
2022/12/10 10:58:54;;;;;;;41.13;14.93;;;;;;;13.66;77.43;94292.72;5012543;28;20050;-81
2022/12/10 11:01:21;;;;;;;23.45;12.10;;;;;;;13.40;76.75;94239.47;5014108;28;20554;-81
2022/12/10 11:03:50;;;;;;;36.88;13.68;;;;;;;13.35;76.12;94236.94;4988681;28;20172;-82
2022/12/10 11:06:16;;;;;;;26.05;13.43;;;;;;;13.21;76.29;94193.72;5005391;28;20046;-83
2022/12/10 11:08:44;;;;;;;37.72;14.93;;;;;;;13.75;77.39;94288.19;4988272;28;20056;-82
2022/12/10 11:11:18;;;;;;;36.33;14.35;;;;;;;13.42;76.46;94234.63;5005271;28;20033;-82
2022/12/10 11:13:43;;;;;;;29.13;12.25;;;;;;;13.44;76.33;94228.97;4970626;28;20050;-83
2022/12/10 11:16:15;;;;;;;26.15;11.85;;;;;;;13.85;76.71;94271.09;4989576;28;20053;-82
2022/12/10 11:19:01;;;;;;;42.70;11.35;;;;;;;13.73;77.46;94255.72;4988614;28;20082;-82
2022/12/10 11:21:27;;;;;;;31.83;12.02;;;;;;;13.31;77.88;94187.28;4986947;28;20081;-82
2022/12/10 11:23:55;;;;;;;37.83;12.23;;;;;;;13.46;78.14;94206.25;4986636;28;20053;-82
2022/12/10 11:26:45;;;;;;;33.17;11.82;;;;;;;13.77;77.93;94224.72;4986975;28;20144;-82
2022/12/10 11:29:30;;;;;;;37.17;11.90;;;;;;;13.66;78.48;94222.66;5012963;28;20052;-83
2022/12/10 11:32:13;;;;;;;53.88;12.02;;;;;;;13.59;79.04;94217.81;5014209;28;20205;-83
2022/12/10 11:34:59;;;;;;;45.20;13.90;;;;;;;13.67;79.13;94214.38;4996480;28;20049;-83
2022/12/10 11:37:37;;;;;;;25.83;9.88;;;;;;;13.08;78.27;94131.53;4988862;28;20141;-83
2022/12/10 11:40:29;;;;;;;35.72;12.05;;;;;;;13.21;79.09;94155.66;5004956;28;20077;-83
2022/12/10 11:43:25;;;;;;;21.60;10.40;;;;;;;13.75;78.54;94228.78;4989236;28;20080;-83
2022/12/10 11:45:53;;;;;;;35.72;9.25;;;;;;;13.82;78.06;94226.41;5003633;28;20214;-83
2022/12/10 11:48:38;;;;;;;26.95;9.13;;;;;;;13.84;77.11;94229.56;5006970;28;20080;-83
2022/12/10 11:51:08;;;;;;;42.42;10.88;;;;;;;13.69;77.76;94209.50;4995418;28;20046;-83
2022/12/10 11:53:48;;;;;;;27.77;10.82;;;;;;;13.81;77.98;94228.28;4991413;28;20041;-83
2022/12/10 11:56:26;;;;;;;24.60;10.82;;;;;;;13.73;78.22;94223.00;5020170;28;20056;-83
2022/12/10 11:59:09;;;;;;;26.17;11.07;;;;;;;13.54;78.65;94210.00;5015065;28;20056;-83
2022/12/10 12:02:10;;;;;;;34.42;11.90;;;;;;;13.63;79.85;94202.00;5008252;28;20048;-83
2022/12/10 12:05:11;;;;;;;26.52;11.35;;;;;;;13.43;79.44;94206.88;4999791;28;20523;-83
2022/12/10 12:07:43;;;;;;;25.88;11.73;;;;;;;13.48;79.88;94203.28;4940745;28;20047;-83
2022/12/10 12:10:30;;;;;;;32.20;10.43;;;;;;;13.71;79.27;94206.53;5006211;28;20053;-83
2022/12/10 12:13:04;;;;;;;39.83;11.15;;;;;;;12.98;78.43;94083.16;5018482;28;20503;-83
2022/12/10 12:15:29;;;;;;;39.97;11.65;;;;;;;13.73;78.48;94191.78;5007693;28;20085;-83
2022/12/10 12:18:21;;;;;;;34.22;10.57;;;;;;;13.75;77.82;94181.59;5025920;28;20068;-83
2022/12/10 12:20:53;;;;;;;30.92;11.55;;;;;;;13.19;78.32;94123.25;4983271;28;20111;-83
2022/12/10 12:23:36;;;;;;;27.42;10.32;;;;;;;13.11;78.18;94098.19;5031560;28;20037;-83
2022/12/10 12:26:19;;;;;;;21.15;10.45;;;;;;;13.18;77.90;94098.53;5024658;28;20080;-84
2022/12/10 12:29:13;;;;;;;25.02;10.77;;;;;;;13.25;77.68;94106.03;5006239;28;20508;-83
2022/12/10 12:31:43;;;;;;;26.17;10.52;;;;;;;13.22;77.66;94086.13;5018458;28;20045;-83
2022/12/10 12:34:43;;;;;;;25.30;10.20;;;;;;;13.08;78.01;94062.31;5009938;28;20047;-83
2022/12/10 12:37:12;;;;;;;21.42;9.88;;;;;;;13.41;78.03;94110.53;5038516;28;20048;-83
2022/12/10 12:40:02;;;;;;;30.02;10.70;;;;;;;13.77;77.69;94146.66;5028936;28;20064;-83
2022/12/10 12:42:52;;;;;;;34.85;11.70;;;;;;;13.64;77.97;94123.66;5023272;28;20052;-83
2022/12/10 12:45:21;;;;;;;30.73;10.52;;;;;;;13.69;77.80;94131.47;5006612;28;20081;-83
2022/12/10 12:47:55;;;;;;;24.27;9.73;;;;;;;13.53;78.02;94131.97;5022309;28;20157;-84
2022/12/10 12:50:24;;;;;;;19.02;9.40;;;;;;;13.64;78.13;94136.97;5005911;28;20106;-83
2022/12/10 12:52:59;;;;;;;20.95;8.77;;;;;;;13.36;77.65;94084.06;5023352;28;20056;-83
2022/12/10 12:55:43;;;;;;;21.40;9.45;;;;;;;13.67;77.73;94139.78;5022404;28;20472;-84
2022/12/10 12:58:33;;;;;;;27.27;9.65;;;;;;;13.60;77.81;94123.50;5013637;28;20052;-83
2022/12/10 13:01:10;;;;;;;24.90;9.77;;;;;;;13.01;78.13;94034.63;5023818;28;20571;-84
2022/12/10 13:03:43;;;;;;;31.42;11.10;;;;;;;13.58;78.22;94124.94;4997423;28;20050;-83
2022/12/10 13:06:18;;;;;;;43.22;13.57;;;;;;;13.58;77.96;94120.34;5024169;28;20100;-83
2022/12/10 13:08:46;;;;;;;33.75;11.98;;;;;;;13.05;77.78;94030.22;5019991;28;20048;-84
2022/12/10 13:11:12;;;;;;;33.10;10.63;;;;;;;13.48;77.90;94102.06;4987316;28;20040;-83
2022/12/10 13:14:03;;;;;;;32.78;10.05;;;;;;;13.29;78.33;94086.44;5038132;28;20052;-84
2022/12/10 13:16:37;;;;;;;33.45;11.00;;;;;;;13.39;78.59;94106.63;5009920;28;20054;-84
2022/12/10 13:19:18;;;;;;;38.55;11.13;;;;;;;13.35;78.69;94113.69;5006193;28;20160;-83
2022/12/10 13:22:13;;;;;;;52.25;11.65;;;;;;;13.40;78.52;94118.84;5006159;28;20795;-83
2022/12/10 13:24:39;;;;;;;36.60;12.02;;;;;;;13.32;79.23;94109.78;4991142;28;20049;-84
2022/12/10 13:27:07;;;;;;;29.25;10.77;;;;;;;13.38;78.24;94105.06;5027022;28;20045;-83
2022/12/10 13:29:48;;;;;;;35.33;10.63;;;;;;;13.37;78.19;94098.94;5010550;28;20546;-83
2022/12/10 13:32:19;;;;;;;30.90;9.43;;;;;;;12.86;78.18;94006.63;5031820;28;20824;-83
2022/12/10 13:34:45;;;;;;;;;;;;;;;13.19;78.93;94091.31;5014132;28;20292;-84
2022/12/10 13:37:18;;;;;;;30.13;10.23;;;;;;;12.78;78.82;94007.41;5013492;28;19927;-83
2022/12/10 13:39:54;;;;;;;23.23;11.13;;;;;;;12.76;78.52;93985.66;5006148;28;20431;-82
2022/12/10 13:45:25;;;;;;;41.30;12.27;;;;;;;13.21;78.99;94038.50;5011947;28;20112;-82
2022/12/10 13:47:55;;;;;;;36.63;14.23;;;;;;;13.06;78.67;94039.78;5004237;28;20138;-83
2022/12/10 13:50:41;;;;;;;37.80;14.50;;;;;;;12.83;79.05;94017.09;5020795;28;20049;-83
2022/12/10 13:53:19;;;;;;;34.78;12.25;;;;;;;12.94;79.34;94059.06;5011218;28;20045;-83
2022/12/10 13:55:50;;;;;;;34.38;13.18;;;;;;;13.00;78.56;94063.13;5038552;28;20433;-82
2022/12/10 13:58:22;;;;;;;33.35;12.60;;;;;;;13.06;78.19;94063.72;5023082;28;20059;-83
2022/12/10 14:00:47;;;;;;;;;;;;;;;13.10;77.74;94059.34;5041747;28;20052;-83
2022/12/10 14:03:34;;;;;;;29.60;12.75;;;;;;;12.58;77.65;93982.25;5009061;28;19920;-83
2022/12/10 14:06:11;;;;;;;34.80;14.10;;;;;;;13.08;78.03;94056.22;5023680;28;20058;-83
2022/12/10 14:08:40;;;;;;;45.40;13.85;;;;;;;13.00;78.14;94057.00;5027468;28;20734;-83
2022/12/10 14:11:18;;;;;;;48.92;13.68;;;;;;;12.60;78.39;94003.19;5001703;28;20045;-83
2022/12/10 14:13:47;;;;;;;41.28;13.07;;;;;;;12.52;78.05;93983.50;5009116;28;20088;-83
2022/12/10 14:16:15;;;;;;;40.13;11.65;;;;;;;12.42;78.12;93961.78;5018211;28;20143;-83
2022/12/10 14:18:51;;;;;;;38.17;13.75;;;;;;;12.69;78.36;93999.44;5027788;28;20040;-83
2022/12/10 14:21:18;;;;;;;28.38;13.77;;;;;;;12.40;77.96;93955.97;5027439;28;20068;-83
2022/12/10 14:23:45;;;;;;;42.20;13.65;;;;;;;12.14;78.35;93921.41;5027639;28;20056;-83
2022/12/10 14:26:17;;;;;;;45.42;13.73;;;;;;;12.43;78.09;93960.69;5043244;28;20051;-83
2022/12/10 14:28:56;;;;;;;46.33;14.57;;;;;;;12.82;78.36;94011.00;5044515;28;20897;-83
2022/12/10 14:31:31;;;;;;;57.65;15.55;;;;;;;12.99;78.62;94028.81;5045744;28;20606;-82
2022/12/10 14:34:02;;;;;;;54.47;16.40;;;;;;;12.93;78.81;94022.91;5015168;28;20049;-83
2022/12/10 14:36:32;;;;;;;50.58;15.38;;;;;;;12.92;78.93;94024.00;5018842;28;20400;-83
2022/12/10 14:38:59;;;;;;;52.28;17.10;;;;;;;12.86;79.59;94014.59;5026998;28;20115;-83
2022/12/10 14:41:27;;;;;;;42.83;13.30;;;;;;;12.42;80.09;93962.56;5025822;28;20052;-82
2022/12/10 14:43:53;;;;;;;35.08;12.93;;;;;;;12.27;79.52;93939.09;5018865;28;20071;-83
2022/12/10 14:46:24;;;;;;;42.78;13.88;;;;;;;12.69;79.00;93990.69;5025229;28;20053;-83